Time;durP1;ratioP1;P1;durP2;ratioP2;P2;SDS_P1;SDS_P2;PMS_P1;PMS_P2;Temp;Humidity;BMP_temperature;BMP_pressure;BME280_temperature;BME280_humidity;BME280_pressure;Samples;Min_cycle;Max_cycle;Signal;HPM_P1;HPM_P2
2021/04/12 00:01:14;;;;;;;3.85;2.00;;;3.80;1.30;;;;;;5095139;28;20163;-70
2021/04/12 00:04:11;;;;;;;5.88;2.40;;;3.90;1.00;;;;;;5094892;28;20183;-70
2021/04/12 00:07:02;;;;;;;3.95;2.40;;;3.80;1.00;;;;;;5095063;28;20171;-70
2021/04/12 00:09:55;;;;;;;3.03;1.83;;;3.80;1.00;;;;;;5094708;28;20635;-70
2021/04/12 00:12:37;;;;;;;2.80;1.83;;;3.70;1.00;;;;;;5094897;28;20616;-70
2021/04/12 00:15:21;;;;;;;4.90;2.00;;;3.60;1.00;;;;;;5094713;28;20247;-70
2021/04/12 00:17:50;;;;;;;7.57;2.25;;;3.50;1.00;;;;;;5094793;28;20160;-70
2021/04/12 00:20:35;;;;;;;5.20;2.05;;;3.50;1.00;;;;;;5094718;28;20662;-70
2021/04/12 00:23:09;;;;;;;3.95;2.42;;;3.60;1.00;;;;;;5094427;28;20213;-70
2021/04/12 00:25:46;;;;;;;4.43;2.20;;;3.50;19.90;;;;;;5094434;28;20160;-70
2021/04/12 00:28:29;;;;;;;4.45;2.30;;;3.60;2.20;;;;;;5094587;28;20198;-70
2021/04/12 00:31:15;;;;;;;7.35;2.42;;;3.60;22.30;;;;;;5094565;28;20179;-70
2021/04/12 00:33:46;;;;;;;2.97;1.73;;;3.70;85.80;;;;;;5094160;28;20647;-69
2021/04/12 00:36:37;;;;;;;5.43;1.92;;;3.80;1.00;;;;;;5094141;28;20159;-70
2021/04/12 00:39:37;;;;;;;6.57;2.50;;;3.80;1.00;;;;;;5094387;28;20172;-70
2021/04/12 00:42:30;;;;;;;2.63;1.80;;;3.90;99.90;;;;;;5094070;28;20152;-68
2021/04/12 00:45:41;;;;;;;4.80;2.58;;;4.00;99.90;;;;;;5094032;28;20163;-70
2021/04/12 00:48:10;;;;;;;11.20;2.55;;;4.10;99.90;;;;;;5049073;28;20301;-70
2021/04/12 00:50:39;;;;;;;5.25;2.63;;;4.10;99.90;;;;;;5093989;28;20181;-70
2021/04/12 00:53:22;;;;;;;3.40;2.67;;;4.10;99.90;;;;;;5093760;28;20563;-70
2021/04/12 00:56:19;;;;;;;5.10;1.85;;;4.10;99.90;;;;;;5093769;28;20160;-70
2021/04/12 00:58:51;;;;;;;4.25;2.30;;;4.00;99.90;;;;;;5021532;28;20222;-70
2021/04/12 01:01:37;;;;;;;3.17;2.30;;;4.00;99.90;;;;;;5093861;28;20574;-70
2021/04/12 01:04:32;;;;;;;3.10;2.00;;;3.90;99.90;;;;;;5094021;28;20684;-70
2021/04/12 01:07:35;;;;;;;4.15;2.70;;;3.80;99.90;;;;;;5093502;28;20200;-70
2021/04/12 01:10:21;;;;;;;6.20;2.63;;;3.60;99.90;;;;;;5093644;28;20167;-70
2021/04/12 01:13:09;;;;;;;7.82;2.83;;;3.60;99.90;;;;;;5093561;28;20219;-69
2021/04/12 01:16:02;;;;;;;5.20;3.10;;;3.40;99.90;;;;;;5093575;28;20268;-70
2021/04/12 01:18:39;;;;;;;3.70;2.53;;;3.30;99.90;;;;;;5093809;28;20254;-70
2021/04/12 01:21:44;;;;;;;4.45;2.70;;;3.40;99.90;;;;;;5094059;28;20613;-70
2021/04/12 01:24:55;;;;;;;4.28;3.00;;;3.50;99.90;;;;;;5090338;28;20217;-69
2021/04/12 01:27:32;;;;;;;10.15;3.83;;;3.40;99.90;;;;;;5091122;28;20207;-70
2021/04/12 01:30:24;;;;;;;6.82;3.42;;;3.40;99.90;;;;;;5094656;28;20159;-70
2021/04/12 01:33:27;;;;;;;9.75;3.53;;;3.40;99.90;;;;;;5094533;28;20194;-70
2021/04/12 01:36:14;;;;;;;5.50;3.10;;;3.50;99.90;;;;;;5093360;28;20166;-69
2021/04/12 01:38:57;;;;;;;8.60;4.47;;;3.30;99.90;;;;;;5093432;28;20187;-69
2021/04/12 01:41:34;;;;;;;6.72;4.07;;;3.20;99.90;;;;;;5093463;28;20152;-69
2021/04/12 01:44:18;;;;;;;5.43;3.90;;;3.20;1.00;;;;;;5093238;28;20285;-69
2021/04/12 01:46:51;;;;;;;6.43;3.88;;;3.10;1.00;;;;;;5093301;28;20183;-69
2021/04/12 01:49:25;;;;;;;7.70;5.00;;;3.20;1.00;;;;;;5093101;28;20167;-69
2021/04/12 01:52:09;;;;;;;7.65;4.35;;;3.10;99.90;;;;;;5093343;28;20250;-69
2021/04/12 01:54:53;;;;;;;7.53;4.90;;;3.10;1.00;;;;;;5093273;28;20231;-69
2021/04/12 01:57:37;;;;;;;6.68;4.50;;;2.80;1.00;;;;;;5093303;28;20167;-69
2021/04/12 02:00:05;;;;;;;11.60;4.75;;;2.90;1.00;;;;;;5092926;28;20172;-69
2021/04/12 02:02:51;;;;;;;11.30;5.60;;;2.80;1.00;;;;;;5092856;28;20170;-70
2021/04/12 02:05:51;;;;;;;7.25;5.20;;;2.60;90.60;;;;;;5093169;28;20633;-69
2021/04/12 02:08:41;;;;;;;9.55;5.38;;;2.60;90.70;;;;;;5092877;28;20209;-70
2021/04/12 02:11:35;;;;;;;10.50;4.65;;;2.70;99.90;;;;;;5092849;28;20152;-70
2021/04/12 02:14:04;;;;;;;9.73;5.53;;;2.90;99.90;;;;;;5092886;28;20556;-69
2021/04/12 02:16:42;;;;;;;9.32;5.45;;;3.00;1.00;;;;;;5092825;28;20168;-69
2021/04/12 02:19:42;;;;;;;9.75;5.03;;;2.80;1.00;;;;;;5092852;28;20600;-69
2021/04/12 02:22:31;;;;;;;7.57;4.30;;;2.70;1.00;;;;;;5094180;28;20160;-69
2021/04/12 02:25:31;;;;;;;10.05;4.97;;;2.80;99.90;;;;;;5096780;28;20156;-69
2021/04/12 02:28:15;;;;;;;8.40;4.80;;;3.00;6.60;;;;;;5097031;28;20212;-69
2021/04/12 02:30:58;;;;;;;12.93;5.10;;;2.80;4.20;;;;;;5096643;28;20251;-69
2021/04/12 02:33:45;;;;;;;9.15;6.00;;;2.70;1.00;;;;;;5096538;28;20183;-70
2021/04/12 02:36:18;;;;;;;19.35;6.47;;;2.50;1.00;;;;;;5096868;28;20160;-69
2021/04/12 02:39:02;;;;;;;10.63;5.88;;;2.50;4.60;;;;;;5096518;28;20151;-69
2021/04/12 02:41:52;;;;;;;9.77;5.32;;;2.70;99.90;;;;;;5097219;28;20178;-69
2021/04/12 02:44:52;;;;;;;10.23;5.50;;;2.60;1.00;;;;;;5096415;28;20211;-69
2021/04/12 02:47:47;;;;;;;9.68;5.22;;;2.60;26.90;;;;;;5096578;28;20644;-70
2021/04/12 02:50:37;;;;;;;9.93;4.88;;;2.50;70.00;;;;;;5065098;28;20194;-69
2021/04/12 02:53:27;;;;;;;10.13;5.93;;;2.60;99.90;;;;;;5096195;28;20325;-70
2021/04/12 02:56:11;;;;;;;8.73;5.15;;;2.60;99.90;;;;;;5096193;28;20164;-69
2021/04/12 02:59:02;;;;;;;7.65;4.82;;;2.50;99.90;;;;;;5096479;28;20151;-70
2021/04/12 03:01:46;;;;;;;10.68;6.20;;;2.30;99.90;;;;;;5096320;28;20160;-69
2021/04/12 03:04:37;;;;;;;9.70;5.07;;;2.40;1.00;;;;;;5096256;28;20223;-69
2021/04/12 03:07:36;;;;;;;14.05;6.65;;;2.40;1.00;;;;;;5096016;28;20821;-69
2021/04/12 03:10:26;;;;;;;8.13;5.03;;;2.60;99.90;;;;;;5069070;28;20172;-70
2021/04/12 03:13:21;;;;;;;8.57;4.50;;;2.80;1.00;;;;;;5095752;28;20188;-70
2021/04/12 03:15:58;;;;;;;10.23;4.40;;;2.90;1.00;;;;;;5095805;28;20573;-69
2021/04/12 03:18:55;;;;;;;16.00;5.50;;;3.10;1.00;;;;;;5095998;28;20167;-70
2021/04/12 03:21:39;;;;;;;8.93;5.13;;;3.20;99.90;;;;;;5095736;28;20535;-69
2021/04/12 03:24:40;;;;;;;6.75;4.40;;;3.20;99.90;;;;;;5095643;28;20198;-71
2021/04/12 03:27:15;;;;;;;5.40;4.53;;;3.20;99.90;;;;;;5095794;28;20207;-69
2021/04/12 03:29:40;;;;;;;6.00;3.95;;;2.90;99.90;;;;;;5095819;28;20156;-70
2021/04/12 03:32:35;;;;;;;4.93;3.93;;;2.90;99.90;;;;;;5095727;28;20183;-70
2021/04/12 03:35:14;;;;;;;10.07;4.80;;;3.00;99.90;;;;;;5095448;28;20228;-70
2021/04/12 03:38:01;;;;;;;7.63;5.50;;;3.00;99.90;;;;;;5095676;28;20162;-70
2021/04/12 03:40:41;;;;;;;13.88;5.00;;;2.90;99.90;;;;;;5095690;28;20612;-69
2021/04/12 03:43:12;;;;;;;7.85;4.50;;;2.90;99.90;;;;;;5095504;28;20221;-69
2021/04/12 03:45:52;;;;;;;10.48;5.90;;;2.80;99.90;;;;;;5095500;28;20163;-70
2021/04/12 03:48:36;;;;;;;10.00;5.40;;;2.80;99.90;;;;;;5095437;28;20190;-70
2021/04/12 03:51:33;;;;;;;9.77;4.90;;;2.70;99.90;;;;;;5095509;28;20163;-69
2021/04/12 03:54:23;;;;;;;10.60;4.47;;;2.80;99.90;;;;;;5095206;28;20184;-71
2021/04/12 03:57:17;;;;;;;13.43;5.18;;;2.80;99.90;;;;;;5095416;28;20163;-70
2021/04/12 04:00:05;;;;;;;10.65;5.25;;;2.60;99.90;;;;;;5094997;28;20167;-69
2021/04/12 04:03:14;;;;;;;8.27;5.30;;;2.70;99.90;;;;;;5095134;28;20193;-70
2021/04/12 04:06:17;;;;;;;8.98;4.65;;;2.50;99.90;;;;;;5095726;28;20589;-70
2021/04/12 04:09:20;;;;;;;7.75;4.68;;;2.30;1.00;;;;;;5095117;28;20194;-70
2021/04/12 04:12:14;;;;;;;8.57;5.65;;;2.10;1.00;;;;;;5094697;28;20532;-69
2021/04/12 04:14:51;;;;;;;9.98;5.25;;;2.00;1.00;;;;;;5090504;28;20298;-69
2021/04/12 04:17:26;;;;;;;6.32;5.03;;;1.90;6.30;;;;;;5094663;28;20151;-69
2021/04/12 04:20:23;;;;;;;7.70;5.00;;;2.30;1.00;;;;;;5094882;28;20169;-70
2021/04/12 04:23:10;;;;;;;8.05;5.25;;;2.20;55.80;;;;;;5094715;28;20241;-70
2021/04/12 04:25:56;;;;;;;9.27;4.65;;;2.20;23.00;;;;;;5094527;28;20155;-69
2021/04/12 04:28:59;;;;;;;8.52;4.45;;;2.30;65.30;;;;;;5094489;28;20240;-69
2021/04/12 04:32:02;;;;;;;7.93;4.38;;;2.20;1.00;;;;;;5094428;28;20174;-69
2021/04/12 04:34:54;;;;;;;8.23;4.78;;;2.10;1.00;;;;;;5094146;28;20270;-69
2021/04/12 04:37:24;;;;;;;5.97;4.72;;;2.00;1.00;;;;;;5094555;28;20501;-69
2021/04/12 04:40:06;;;;;;;13.00;5.55;;;2.30;99.90;;;;;;5094456;28;20168;-69
2021/04/12 04:43:21;;;;;;;7.82;5.25;;;2.30;1.00;;;;;;5094251;28;20163;-69
2021/04/12 04:46:05;;;;;;;10.88;5.53;;;2.10;1.00;;;;;;5048422;28;20274;-69
2021/04/12 04:48:58;;;;;;;5.82;5.00;;;2.20;1.00;;;;;;5093992;28;20331;-70
2021/04/12 04:51:51;;;;;;;9.38;5.57;;;2.00;1.00;;;;;;5094619;28;20490;-70
2021/04/12 04:54:32;;;;;;;8.40;5.82;;;1.70;1.00;;;;;;5094002;28;20667;-70
2021/04/12 04:57:34;;;;;;;11.70;5.80;;;1.70;99.90;;;;;;5094061;28;20190;-69
2021/04/12 05:00:13;;;;;;;7.75;5.80;;;1.70;99.90;;;;;;5094042;28;20155;-70
2021/04/12 05:02:41;;;;;;;13.00;5.57;;;1.60;99.90;;;;;;5093682;28;20687;-70
2021/04/12 05:05:24;;;;;;;14.93;5.95;;;1.60;99.90;;;;;;5093608;28;20178;-70
2021/04/12 05:08:27;;;;;;;8.18;5.75;;;1.80;1.00;;;;;;5093055;28;20614;-69
2021/04/12 05:11:17;;;;;;;7.38;5.32;;;1.70;1.00;;;;;;5092539;28;20156;-69
2021/04/12 05:14:11;;;;;;;11.13;5.35;;;1.60;99.90;;;;;;5092615;28;20195;-69
2021/04/12 05:16:49;;;;;;;7.22;6.00;;;1.50;99.90;;;;;;5092580;28;20238;-69
2021/04/12 05:19:27;;;;;;;6.60;5.43;;;1.50;1.00;;;;;;5092859;28;20152;-69
2021/04/12 05:22:33;;;;;;;10.52;5.85;;;1.70;99.90;;;;;;5092629;28;20285;-69
2021/04/12 05:25:13;;;;;;;13.50;6.50;;;1.90;99.90;;;;;;5092315;28;20224;-69
2021/04/12 05:28:12;;;;;;;7.22;5.32;;;2.00;99.90;;;;;;5092261;28;20266;-70
2021/04/12 05:31:21;;;;;;;13.70;6.47;;;2.00;1.00;;;;;;5092715;28;20151;-69
2021/04/12 05:34:05;;;;;;;19.05;6.75;;;2.10;99.90;;;;;;5060256;28;20209;-69
2021/04/12 05:37:02;;;;;;;17.02;7.70;;;2.40;1.00;;;;;;5092084;28;20164;-69
2021/04/12 05:39:49;;;;;;;13.10;6.15;;;2.60;1.00;;;;;;5092401;28;20235;-69
2021/04/12 05:42:40;;;;;;;9.35;6.47;;;2.40;99.90;;;;;;5092173;28;20163;-69
2021/04/12 05:45:47;;;;;;;13.35;7.82;;;2.50;99.90;;;;;;5092120;28;20152;-69
2021/04/12 05:48:37;;;;;;;13.52;6.80;;;2.40;99.90;;;;;;5091792;28;20303;-68
2021/04/12 05:51:15;;;;;;;9.07;6.90;;;2.40;99.90;;;;;;5091857;28;20165;-69
2021/04/12 05:53:52;;;;;;;8.07;5.72;;;2.60;99.90;;;;;;5091833;28;20556;-69
2021/04/12 05:56:50;;;;;;;11.05;7.22;;;2.80;99.90;;;;;;5090862;28;20234;-69
2021/04/12 05:59:26;;;;;;;8.32;6.57;;;3.20;1.00;;;;;;5091220;28;20180;-68
2021/04/12 06:02:19;;;;;;;11.52;6.38;;;3.10;99.90;;;;;;5091824;28;20621;-69
2021/04/12 06:04:53;;;;;;;11.10;6.53;;;3.10;99.90;;;;;;5091628;28;20620;-69
2021/04/12 06:07:47;;;;;;;15.43;6.97;;;3.40;99.90;;;;;;5071467;28;566110;-69
2021/04/12 06:10:27;;;;;;;9.57;6.00;;;3.70;99.90;;;;;;5092772;28;20385;-69
2021/04/12 06:13:23;;;;;;;12.05;6.57;;;3.20;99.90;;;;;;5092913;28;20270;-69
2021/04/12 06:16:04;;;;;;;17.45;6.75;;;3.00;99.90;;;;;;5092548;28;20167;-69
2021/04/12 06:18:36;;;;;;;16.10;6.55;;;3.60;99.90;;;;;;5092654;28;20147;-69
2021/04/12 06:21:23;;;;;;;16.88;6.78;;;3.80;99.90;;;;;;5092182;28;20238;-70
2021/04/12 06:23:57;;;;;;;10.32;5.97;;;4.00;99.90;;;;;;5092055;28;20187;-69
2021/04/12 06:26:47;;;;;;;9.57;6.20;;;3.90;57.50;;;;;;5092665;28;20164;-69
2021/04/12 06:29:36;;;;;;;14.60;6.57;;;3.60;99.90;;;;;;5092350;28;20617;-68
2021/04/12 06:32:23;;;;;;;18.23;6.85;;;3.80;99.90;;;;;;5092705;28;20160;-69
2021/04/12 06:35:20;;;;;;;8.48;5.90;;;4.30;99.90;;;;;;5092638;28;20536;-71
2021/04/12 06:37:57;;;;;;;13.95;7.32;;;4.20;95.30;;;;;;5092317;28;20156;-68
2021/04/12 06:40:32;;;;;;;8.02;5.68;;;4.20;90.20;;;;;;5092241;28;20206;-69
2021/04/12 06:43:25;;;;;;;10.30;5.20;;;4.00;60.10;;;;;;5092673;28;20191;-69
2021/04/12 06:46:09;;;;;;;8.50;5.80;;;4.00;55.60;;;;;;5092213;28;20199;-68
2021/04/12 06:48:59;;;;;;;15.90;6.65;;;4.20;84.30;;;;;;5091935;28;20191;-68
2021/04/12 06:51:52;;;;;;;7.45;6.05;;;4.30;5.20;;;;;;5091931;28;20529;-69
2021/04/12 06:54:39;;;;;;;11.48;6.40;;;3.90;7.80;;;;;;5091885;28;20211;-69
2021/04/12 06:57:29;;;;;;;11.02;6.15;;;3.90;39.60;;;;;;5091918;28;20171;-69
2021/04/12 07:00:13;;;;;;;8.73;6.25;;;3.70;55.30;;;;;;5092999;28;20193;-69
2021/04/12 07:03:05;;;;;;;10.02;6.38;;;4.00;99.90;;;;;;5092240;28;20191;-69
2021/04/12 07:05:53;;;;;;;10.85;6.97;;;4.50;15.60;;;;;;5092441;28;20163;-69
2021/04/12 07:08:53;;;;;;;7.65;5.55;;;4.90;1.00;;;;;;5093170;28;20210;-69
2021/04/12 07:11:56;;;;;;;11.10;7.28;;;5.00;1.00;;;;;;5095745;28;20586;-69
2021/04/12 07:15:00;;;;;;;10.45;6.55;;;4.90;1.00;;;;;;5095608;28;20269;-70
2021/04/12 07:18:10;;;;;;;10.57;6.63;;;4.50;1.00;;;;;;5095568;28;20602;-69
2021/04/12 07:21:12;;;;;;;15.32;6.93;;;4.50;1.00;;;;;;5095630;28;20242;-69
2021/04/12 07:24:09;;;;;;;11.35;6.45;;;4.60;1.00;;;;;;5095612;28;20540;-69
2021/04/12 07:27:12;;;;;;;9.45;6.97;;;4.30;1.00;;;;;;5095145;28;20168;-69
2021/04/12 07:30:09;;;;;;;10.05;6.80;;;4.30;40.10;;;;;;5095698;28;20236;-70
2021/04/12 07:33:00;;;;;;;20.52;6.25;;;4.50;72.50;;;;;;5095378;28;20164;-70
2021/04/12 07:36:00;;;;;;;9.10;6.65;;;4.70;20.00;;;;;;5095249;28;20167;-70
2021/04/12 07:39:04;;;;;;;11.50;8.30;;;4.80;1.00;;;;;;5095273;28;20167;-70
2021/04/12 07:42:17;;;;;;;14.55;6.97;;;4.50;1.00;;;;;;5095373;28;20167;-70
2021/04/12 07:45:22;;;;;;;8.98;6.60;;;5.00;1.00;;;;;;5095398;28;20532;-69
2021/04/12 07:47:47;;;;;;;8.07;6.78;;;5.20;1.00;;;;;;5095020;28;20312;-71
2021/04/12 07:50:43;;;;;;;9.83;7.80;;;4.90;1.00;;;;;;5095000;28;20650;-69
2021/04/12 07:53:23;;;;;;;11.77;7.65;;;4.90;1.00;;;;;;5095028;28;20532;-68
2021/04/12 07:56:38;;;;;;;14.02;7.35;;;4.80;1.00;;;;;;5094875;28;20643;-69
2021/04/12 07:59:30;;;;;;;9.98;7.78;;;5.30;1.00;;;;;;5063458;28;20186;-68
2021/04/12 08:02:33;;;;;;;11.85;8.52;;;4.90;1.00;;;;;;5094886;28;20160;-68
2021/04/12 08:05:20;;;;;;;10.60;7.60;;;4.80;1.00;;;;;;5094553;28;20728;-69
2021/04/12 08:08:07;;;;;;;11.77;9.18;;;5.00;1.00;;;;;;5094626;28;20207;-69
2021/04/12 08:10:51;;;;;;;14.95;10.32;;;5.10;1.00;;;;;;5094598;28;20160;-71
2021/04/12 08:13:54;;;;;;;17.70;10.55;;;5.20;1.00;;;;;;5094728;28;20187;-69
2021/04/12 08:16:22;;;;;;;13.00;10.05;;;5.40;1.00;;;;;;5094721;28;20570;-70
2021/04/12 08:19:02;;;;;;;18.08;12.73;;;5.30;1.00;;;;;;5094327;28;20175;-70
2021/04/12 08:22:00;;;;;;;13.20;9.45;;;5.30;1.00;;;;;;5094277;28;20164;-70
2021/04/12 08:25:00;;;;;;;13.45;9.90;;;5.20;1.00;;;;;;5094051;28;20184;-70
2021/04/12 08:27:50;;;;;;;45.78;12.13;;;5.00;1.00;;;;;;5063445;28;20668;-70
2021/04/12 08:30:30;;;;;;;12.70;9.10;;;5.70;1.00;;;;;;5094109;28;20160;-70
2021/04/12 08:33:36;;;;;;;14.45;9.55;;;5.80;1.00;;;;;;5094357;28;20180;-71
2021/04/12 08:36:41;;;;;;;11.13;9.45;;;5.40;1.00;;;;;;5093982;28;20175;-70
2021/04/12 08:39:44;;;;;;;13.07;9.57;;;5.60;1.00;;;;;;5094674;28;20284;-71
2021/04/12 08:42:34;;;;;;;13.07;8.90;;;6.20;1.00;;;;;;5094580;28;20206;-71
2021/04/12 08:45:21;;;;;;;9.38;7.70;;;6.30;1.00;;;;;;5094663;28;20189;-71
2021/04/12 08:48:12;;;;;;;16.13;10.13;;;6.10;1.00;;;;;;5095107;28;20183;-71
2021/04/12 08:50:47;;;;;;;42.90;18.20;;;6.20;1.00;;;;;;5094410;28;20168;-71
2021/04/12 08:53:35;;;;;;;13.65;9.07;;;6.70;1.00;;;;;;5093747;28;20612;-70
2021/04/12 08:56:07;;;;;;;20.35;10.32;;;6.60;1.00;;;;;;5093971;28;20164;-71
2021/04/12 08:58:54;;;;;;;13.60;9.02;;;6.40;1.00;;;;;;5094067;28;20450;-70
2021/04/12 09:01:26;;;;;;;10.25;9.15;;;6.20;1.00;;;;;;5093650;28;20198;-70
2021/04/12 09:04:25;;;;;;;13.27;10.00;;;6.10;1.00;;;;;;5093549;28;20190;-70
2021/04/12 09:07:28;;;;;;;11.32;9.18;;;5.30;1.00;;;;;;5093594;28;20736;-70
2021/04/12 09:10:18;;;;;;;13.07;10.55;;;5.80;1.00;;;;;;5093663;28;20179;-70
2021/04/12 09:12:48;;;;;;;14.02;10.75;;;5.60;1.00;;;;;;5093478;28;20241;-70
2021/04/12 09:15:29;;;;;;;15.90;12.02;;;6.00;1.00;;;;;;5093662;28;20174;-70
2021/04/12 09:18:17;;;;;;;14.90;12.20;;;6.00;1.00;;;;;;5093227;28;20194;-70
2021/04/12 09:21:10;;;;;;;12.38;11.07;;;6.10;1.00;;;;;;5093409;28;20171;-70
2021/04/12 09:24:09;;;;;;;12.27;10.57;;;6.40;1.00;;;;;;5093198;28;20187;-70
2021/04/12 09:27:19;;;;;;;13.10;11.18;;;6.80;1.00;;;;;;5092927;28;20696;-71
2021/04/12 09:29:57;;;;;;;11.35;8.75;;;6.50;1.00;;;;;;5093025;28;20160;-70
2021/04/12 09:32:50;;;;;;;13.23;9.93;;;6.70;1.00;;;;;;5092933;28;20155;-70
2021/04/12 09:35:34;;;;;;;11.57;10.07;;;6.20;1.00;;;;;;5092794;28;20167;-70
2021/04/12 09:38:30;;;;;;;11.63;8.63;;;6.30;1.00;;;;;;5093214;28;20530;-70
2021/04/12 09:41:10;;;;;;;14.48;8.88;;;6.80;1.00;;;;;;5093728;28;20183;-70
2021/04/12 09:43:44;;;;;;;18.27;8.82;;;6.60;1.00;;;;;;5093112;28;20186;-70
2021/04/12 09:46:37;;;;;;;14.70;9.30;;;6.40;1.00;;;;;;5093706;28;20155;-72
2021/04/12 09:49:30;;;;;;;11.40;10.13;;;6.90;1.00;;;;;;5094077;28;20182;-69
2021/04/12 09:52:20;;;;;;;15.40;9.02;;;6.70;1.00;;;;;;5093602;28;20164;-70
2021/04/12 09:55:17;;;;;;;10.65;9.52;;;6.60;1.00;;;;;;5078403;28;20176;-69
2021/04/12 09:58:04;;;;;;;12.43;9.07;;;6.90;1.00;;;;;;5092857;28;20660;-71
2021/04/12 10:00:48;;;;;;;13.85;9.30;;;6.90;1.00;;;;;;5092853;28;20190;-70
2021/04/12 10:03:51;;;;;;;21.40;12.80;;;7.60;1.00;;;;;;5092958;28;20246;-70
2021/04/12 10:06:53;;;;;;;16.88;12.45;;;7.80;1.00;;;;;;5092668;28;20167;-70
2021/04/12 10:09:39;;;;;;;13.05;10.35;;;7.30;1.00;;;;;;5092734;28;20224;-69
2021/04/12 10:12:41;;;;;;;10.45;5.90;;;7.30;1.00;;;;;;5092849;28;20166;-70
2021/04/12 10:15:14;;;;;;;6.07;4.85;;;7.10;1.00;;;;;;5092686;28;20155;-70
2021/04/12 10:17:48;;;;;;;6.28;5.05;;;7.00;1.00;;;;;;5092610;28;20613;-70
2021/04/12 10:20:26;;;;;;;5.00;4.50;;;7.20;1.00;;;;;;5093345;28;20163;-70
2021/04/12 10:23:09;;;;;;;5.97;4.97;;;7.50;1.00;;;;;;5093524;28;20221;-69
2021/04/12 10:25:52;;;;;;;5.90;3.72;;;7.30;1.00;;;;;;5092840;28;20160;-70
2021/04/12 10:28:32;;;;;;;5.32;4.82;;;7.10;1.00;;;;;;5093885;28;20221;-69
2021/04/12 10:31:17;;;;;;;6.53;3.95;;;7.50;1.00;;;;;;5092883;28;20561;-69
2021/04/12 10:33:48;;;;;;;14.30;7.45;;;7.90;1.00;;;;;;5092716;28;20219;-71
2021/04/12 10:36:42;;;;;;;11.70;7.45;;;8.70;1.00;;;;;;5092444;28;20163;-70
2021/04/12 10:39:23;;;;;;;8.55;6.88;;;9.00;1.00;;;;;;5092659;28;20159;-70
2021/04/12 10:41:57;;;;;;;4.63;4.23;;;9.40;1.00;;;;;;5091992;28;20164;-70
2021/04/12 10:44:55;;;;;;;5.23;4.10;;;9.70;1.00;;;;;;5095286;28;20418;-70
2021/04/12 10:47:38;;;;;;;6.55;5.65;;;8.60;1.00;;;;;;5081475;28;20540;-69
2021/04/12 10:50:14;;;;;;;7.65;5.45;;;8.50;1.00;;;;;;5095923;28;20165;-70
2021/04/12 10:53:20;;;;;;;9.88;5.50;;;8.00;1.00;;;;;;5095612;28;20195;-70
2021/04/12 10:56:03;;;;;;;5.75;3.72;;;7.80;1.00;;;;;;5096191;28;20221;-69
2021/04/12 10:58:51;;;;;;;5.03;3.58;;;6.80;1.00;;;;;;5096276;28;20565;-70
2021/04/12 11:01:35;;;;;;;4.72;3.97;;;7.10;1.00;;;;;;5096571;28;20181;-69
2021/04/12 11:04:18;;;;;;;5.80;5.00;;;7.50;1.00;;;;;;5095873;28;20195;-71
2021/04/12 11:07:09;;;;;;;4.63;4.18;;;7.80;1.00;;;;;;5095954;28;20151;-70
2021/04/12 11:09:43;;;;;;;7.40;4.60;;;7.80;1.00;;;;;;5095393;28;20228;-70
2021/04/12 11:12:26;;;;;;;4.15;3.78;;;8.10;1.00;;;;;;5096037;28;20256;-69
2021/04/12 11:15:10;;;;;;;7.63;5.40;;;8.70;1.00;;;;;;5096081;28;20508;-69
2021/04/12 11:17:50;;;;;;;6.75;4.07;;;8.90;1.00;;;;;;5095917;28;20587;-71
2021/04/12 11:20:31;;;;;;;5.57;4.13;;;8.60;1.00;;;;;;5095858;28;20284;-69
2021/04/12 11:23:06;;;;;;;5.60;3.60;;;8.30;1.00;;;;;;5095669;28;20187;-69
2021/04/12 11:25:38;;;;;;;4.73;2.90;;;9.40;1.00;;;;;;5095222;28;20402;-69
2021/04/12 11:28:08;;;;;;;6.70;3.63;;;9.60;1.00;;;;;;5095057;28;20460;-69
2021/04/12 11:30:51;;;;;;;5.03;3.00;;;10.40;1.00;;;;;;5094760;28;20402;-69
2021/04/12 11:33:35;;;;;;;3.17;2.40;;;10.60;1.00;;;;;;5094645;28;20445;-69
2021/04/12 11:36:16;;;;;;;2.60;1.60;;;10.30;1.00;;;;;;5093439;28;20413;-70
2021/04/12 11:39:17;;;;;;;8.60;2.40;;;8.80;1.00;;;;;;5095734;28;20433;-70
2021/04/12 11:41:51;;;;;;;4.50;2.53;;;9.00;1.00;;;;;;5077343;28;20414;-69
2021/04/12 11:44:27;;;;;;;1.73;1.23;;;9.10;1.00;;;;;;5094628;28;20570;-69
2021/04/12 11:47:22;;;;;;;2.17;1.15;;;7.50;1.00;;;;;;5093401;28;20991;-69
2021/04/12 11:50:00;;;;;;;2.03;1.08;;;6.80;1.00;;;;;;5095474;28;20216;-69
2021/04/12 11:52:43;;;;;;;1.50;0.80;;;7.10;1.00;;;;;;5094765;28;20165;-69
2021/04/12 11:55:16;;;;;;;2.00;1.00;;;6.60;1.00;;;;;;5094741;28;20788;-69
2021/04/12 11:58:16;;;;;;;1.30;0.82;;;6.60;1.00;;;;;;5094959;28;20163;-69
2021/04/12 12:01:15;;;;;;;8.15;1.60;;;6.40;1.00;;;;;;5067922;28;20187;-70
2021/04/12 12:04:18;;;;;;;1.40;0.90;;;7.10;1.00;;;;;;5062751;28;20675;-70
2021/04/12 12:07:08;;;;;;;1.15;1.00;;;7.60;1.00;;;;;;5094147;28;20175;-70
2021/04/12 12:10:06;;;;;;;2.00;1.25;;;7.50;1.00;;;;;;5093442;28;20156;-70
2021/04/12 12:12:43;;;;;;;1.98;1.30;;;7.90;1.00;;;;;;5094192;28;20156;-69
2021/04/12 12:15:36;;;;;;;8.98;1.15;;;8.40;1.00;;;;;;5094291;28;20159;-69
2021/04/12 12:18:11;;;;;;;2.25;1.50;;;7.60;1.00;;;;;;5094172;28;20205;-69
2021/04/12 12:20:50;;;;;;;2.30;1.60;;;7.00;1.00;;;;;;5094419;28;20473;-69
2021/04/12 12:23:53;;;;;;;1.90;1.30;;;8.50;1.00;;;;;;5094301;28;20214;-69
2021/04/12 12:26:33;;;;;;;5.53;1.50;;;8.60;1.00;;;;;;5094138;28;20167;-69
2021/04/12 12:29:15;;;;;;;1.60;1.48;;;8.10;1.00;;;;;;5094187;28;20634;-69
2021/04/12 12:32:11;;;;;;;1.95;1.25;;;8.20;1.00;;;;;;5094153;28;20166;-70
2021/04/12 12:35:01;;;;;;;3.95;2.22;;;8.40;1.00;;;;;;5094109;28;20191;-70
2021/04/12 12:38:04;;;;;;;3.45;3.15;;;8.20;1.00;;;;;;5094117;28;20154;-69
2021/04/12 12:40:44;;;;;;;1.98;1.50;;;8.00;1.00;;;;;;5094019;28;20175;-69
2021/04/12 12:43:14;;;;;;;3.20;1.35;;;7.10;1.00;;;;;;5093938;28;20560;-69
2021/04/12 12:45:42;;;;;;;2.47;1.13;;;6.70;1.00;;;;;;5093904;28;20211;-71
2021/04/12 12:48:25;;;;;;;2.53;1.40;;;6.50;1.00;;;;;;5093605;28;20226;-69
2021/04/12 12:50:57;;;;;;;3.97;1.70;;;6.00;1.00;;;;;;5093981;28;20159;-69
2021/04/12 12:53:29;;;;;;;3.50;3.20;;;6.10;1.00;;;;;;5093645;28;20186;-69
2021/04/12 12:56:10;;;;;;;7.40;1.92;;;5.80;1.00;;;;;;5093900;28;20631;-69
2021/04/12 12:58:36;;;;;;;2.05;1.80;;;5.50;1.00;;;;;;5093838;28;20186;-69
2021/04/12 13:01:04;;;;;;;4.83;2.00;;;5.60;1.00;;;;;;5093585;28;20168;-69
2021/04/12 13:03:38;;;;;;;2.90;2.08;;;6.10;1.00;;;;;;5093595;28;20277;-70
2021/04/12 13:06:14;;;;;;;2.30;2.10;;;6.10;1.00;;;;;;5092596;28;20174;-69
2021/04/12 13:08:49;;;;;;;2.10;1.90;;;6.50;1.00;;;;;;5093879;28;20214;-68
2021/04/12 13:11:41;;;;;;;3.22;2.15;;;6.60;1.00;;;;;;5091963;28;20171;-69
2021/04/12 13:14:36;;;;;;;2.60;1.80;;;7.40;1.00;;;;;;5092142;28;20620;-69
2021/04/12 13:17:24;;;;;;;2.78;2.15;;;8.00;1.00;;;;;;5091485;28;20187;-69
2021/04/12 13:19:56;;;;;;;2.20;1.80;;;7.90;1.00;;;;;;5093462;28;20164;-69
2021/04/12 13:22:34;;;;;;;2.78;1.90;;;8.10;1.00;;;;;;5093042;28;20300;-69
2021/04/12 13:25:18;;;;;;;3.80;1.92;;;9.00;1.00;;;;;;5093149;28;20167;-69
2021/04/12 13:27:59;;;;;;;4.47;2.15;;;8.60;1.00;;;;;;5091989;28;20210;-70
2021/04/12 13:30:28;;;;;;;5.03;2.47;;;9.00;1.00;;;;;;5092865;28;20238;-69
2021/04/12 13:33:00;;;;;;;4.50;1.67;;;9.40;1.00;;;;;;5092553;28;20189;-70
2021/04/12 13:35:31;;;;;;;5.00;1.60;;;8.60;1.00;;;;;;5091767;28;20159;-69
2021/04/12 13:38:14;;;;;;;3.15;1.90;;;9.50;1.00;;;;;;5093435;28;20204;-69
2021/04/12 13:40:58;;;;;;;2.00;1.90;;;9.20;1.00;;;;;;5093125;28;20235;-69
2021/04/12 13:43:30;;;;;;;3.30;2.67;;;9.70;1.00;;;;;;5093402;28;20964;-69
2021/04/12 13:46:06;;;;;;;1.97;1.77;;;9.40;1.00;;;;;;5092802;28;20393;-69
2021/04/12 13:48:35;;;;;;;4.00;2.70;;;8.60;1.00;;;;;;5092781;28;20454;-70
2021/04/12 13:51:27;;;;;;;3.40;2.97;;;10.00;1.00;;;;;;5092718;28;20406;-69
2021/04/12 13:53:55;;;;;;;5.80;3.37;;;9.20;1.00;;;;;;5054678;28;20242;-70
2021/04/12 13:56:44;;;;;;;4.22;3.83;;;9.50;1.00;;;;;;5094505;28;20413;-69
2021/04/12 13:59:23;;;;;;;6.13;2.90;;;9.60;1.00;;;;;;5092604;28;20148;-69
2021/04/12 14:01:57;;;;;;;5.43;2.93;;;9.60;1.00;;;;;;5092766;28;20422;-68
2021/04/12 14:04:27;;;;;;;5.07;3.70;;;8.90;1.00;;;;;;5092577;28;20418;-69
2021/04/12 14:07:00;;;;;;;3.27;2.90;;;9.10;1.00;;;;;;5092538;28;20450;-70
2021/04/12 14:09:39;;;;;;;5.53;3.20;;;10.30;1.00;;;;;;5092341;28;20504;-69
2021/04/12 14:12:16;;;;;;;7.50;3.00;;;9.80;1.00;;;;;;5092844;28;20723;-69
2021/04/12 14:14:51;;;;;;;2.53;2.33;;;9.30;1.00;;;;;;5092767;28;20421;-69
2021/04/12 14:17:27;;;;;;;4.10;2.30;;;9.40;1.00;;;;;;5092491;28;20411;-70
2021/04/12 14:20:04;;;;;;;3.40;2.73;;;8.60;1.00;;;;;;5096274;28;20158;-70
2021/04/12 14:22:35;;;;;;;3.30;2.90;;;8.80;1.00;;;;;;5096715;28;20496;-68
2021/04/12 14:25:11;;;;;;;3.67;3.37;;;9.70;1.00;;;;;;5097997;28;20458;-69
2021/04/12 14:27:39;;;;;;;19.33;10.20;;;9.90;1.00;;;;;;5098329;28;20439;-68
2021/04/12 14:30:18;;;;;;;8.60;3.90;;;10.70;1.00;;;;;;5096319;28;20412;-69
2021/04/12 14:33:05;;;;;;;4.20;3.77;;;10.40;1.00;;;;;;5095089;28;20436;-68
2021/04/12 14:35:40;;;;;;;3.93;3.53;;;9.40;1.00;;;;;;5096945;28;20862;-68
2021/04/12 14:38:13;;;;;;;5.17;3.47;;;10.40;1.00;;;;;;5096866;28;20389;-69
2021/04/12 14:40:41;;;;;;;4.00;3.13;;;10.70;1.00;;;;;;5096822;28;20408;-68